SCAQ weather

Arquilhué Airport
Lago Ranco, Los Ríos Region, Chile

Public forecast

Using degrees Celsius for public forecast. Weather courtesy of forecast.io.

Closest aviation weather report (METAR) to Arquilhué Airport

Report is more than 6 hours old.

Closest report is Aviador C. Campos Airport, 41.6 nm (77.0 km) E. Retrieved 2020/03/20 19:30 UTC (19 days ago):

SAZY 201930Z 25019KT CAVOK 27/01 Q1008

Closest aviation forecast (TAF) to Arquilhué Airport

Forecast is more than 12 hours old.

Closest forecast is Aviador C. Campos Airport, 41.6 nm (77.0 km) E. Retrieved 2020-04-04 00:45 UTC (5 days ago):

TAF SAZY 032300Z 0400/0424 27010KT 9999 BKN030 TX21/0419Z TN03/0409Z BECMG 0405/0407 27008KT SCT040 BECMG 0408/0410 26005KT CAVOK BECMG 0415/0417 VRB03KT